Time;durP1;ratioP1;P1;durP2;ratioP2;P2;SDS_P1;SDS_P2;PMS_P1;PMS_P2;Temp;Humidity;BMP_temperature;BMP_pressure;BME280_temperature;BME280_humidity;BME280_pressure;Samples;Min_cycle;Max_cycle;Signal;HPM_P1;HPM_P2
2023/09/03 00:01:39;;;;;;;26.65;18.05;;;;;;;19.45;97.93;102192.78;7359986;19;20015;-69
2023/09/03 00:04:06;;;;;;;26.23;18.80;;;;;;;19.45;97.54;102193.59;7367697;19;20470;-68
2023/09/03 00:06:33;;;;;;;34.45;20.85;;;;;;;19.44;98.19;102185.72;7368125;19;20025;-69
2023/09/03 00:09:00;;;;;;;33.90;21.00;;;;;;;19.45;98.87;102179.44;7364619;19;20131;-68
2023/09/03 00:11:27;;;;;;;32.63;20.23;;;;;;;19.46;99.24;102175.72;7364067;19;20015;-69
2023/09/03 00:13:54;;;;;;;30.98;20.13;;;;;;;19.47;98.35;102172.88;7369494;19;20023;-68
2023/09/03 00:16:21;;;;;;;29.00;19.75;;;;;;;19.47;98.00;102172.88;7366934;19;20494;-69
2023/09/03 00:18:50;;;;;;;32.70;19.70;;;;;;;19.48;98.75;102166.53;7368741;19;20967;-69
2023/09/03 00:21:17;;;;;;;34.33;19.30;;;;;;;19.48;98.90;102171.88;7364404;19;20022;-68
2023/09/03 00:23:45;;;;;;;32.70;20.23;;;;;;;19.48;98.57;102173.72;7367986;19;20022;-68
2023/09/03 00:26:21;;;;;;;24.85;18.05;;;;;;;19.46;98.17;102170.38;7362880;19;20021;-69
2023/09/03 00:28:58;;;;;;;25.38;18.10;;;;;;;19.44;98.50;102177.72;7364071;19;20525;-69
2023/09/03 00:31:32;;;;;;;30.50;18.05;;;;;;;19.43;98.21;102165.38;7360202;19;20913;-69
2023/09/03 00:34:00;;;;;;;29.02;18.88;;;;;;;19.43;98.00;102163.53;7363033;19;20624;-69
2023/09/03 00:36:27;;;;;;;27.48;17.90;;;;;;;19.41;97.90;102164.72;7363458;19;20017;-69
2023/09/03 00:38:54;;;;;;;24.65;16.92;;;;;;;19.40;98.09;102161.22;7370314;19;20114;-68
2023/09/03 00:41:22;;;;;;;27.35;17.75;;;;;;;19.41;97.85;102164.72;7367551;19;20019;-68
2023/09/03 00:43:50;;;;;;;26.60;17.20;;;;;;;19.39;98.01;102158.75;7359608;19;20405;-68
2023/09/03 00:46:20;;;;;;;29.20;17.67;;;;;;;19.39;98.16;102162.25;7364415;19;20023;-69
2023/09/03 00:48:50;;;;;;;24.95;17.73;;;;;;;19.39;98.65;102161.41;7355660;19;20534;-68
2023/09/03 00:51:17;;;;;;;27.45;17.58;;;;;;;19.39;98.16;102166.75;7365422;19;20090;-69
2023/09/03 00:53:48;;;;;;;26.00;16.83;;;;;;;19.38;98.03;102157.91;7362152;19;20022;-69
2023/09/03 00:56:15;;;;;;;22.50;16.40;;;;;;;19.36;97.80;102164.41;7362529;19;20481;-70
2023/09/03 00:58:45;;;;;;;26.30;18.67;;;;;;;19.36;98.62;102172.41;7358379;19;20492;-69
2023/09/03 01:01:15;;;;;;;27.13;17.20;;;;;;;19.35;99.13;102176.13;7363700;19;20037;-69
2023/09/03 01:03:47;;;;;;;23.25;16.25;;;;;;;19.35;98.10;102182.25;7367066;19;20037;-69
2023/09/03 01:06:15;;;;;;;21.60;14.70;;;;;;;19.34;98.40;102177.13;7362575;19;20347;-68
2023/09/03 01:08:43;;;;;;;27.02;17.23;;;;;;;19.32;97.38;102177.28;7362882;19;20162;-69
2023/09/03 01:11:27;;;;;;;23.88;15.00;;;;;;;19.31;97.49;102170.28;7362752;19;20572;-69
2023/09/03 01:14:09;;;;;;;26.00;15.32;;;;;;;19.30;97.63;102168.63;7367563;19;20054;-69
2023/09/03 01:16:48;;;;;;;23.30;14.77;;;;;;;19.29;98.01;102168.81;7360065;19;20026;-68
2023/09/03 01:19:45;;;;;;;27.10;16.83;;;;;;;19.30;98.32;102179.28;7363742;19;20030;-69
2023/09/03 01:22:30;;;;;;;25.00;15.43;;;;;;;19.28;97.54;102175.16;7363841;19;20492;-68
2023/09/03 01:25:10;;;;;;;24.92;14.90;;;;;;;19.28;97.62;102172.50;7361942;19;20319;-68
2023/09/03 01:27:46;;;;;;;24.23;16.05;;;;;;;19.26;97.25;102179.81;7361529;19;20011;-69
2023/09/03 01:30:15;;;;;;;24.23;15.00;;;;;;;19.24;97.36;102180.03;7364348;19;20745;-71
2023/09/03 01:32:45;;;;;;;23.80;14.27;;;;;;;19.23;97.86;102178.34;7362783;19;20018;-71
2023/09/03 01:35:12;;;;;;;23.60;15.07;;;;;;;19.21;98.70;102181.19;7363692;19;20422;-71
2023/09/03 01:37:40;;;;;;;21.23;14.05;;;;;;;19.17;97.92;102190.56;7360296;19;21165;-70
2023/09/03 01:40:07;;;;;;;24.88;14.38;;;;;;;19.15;98.13;102189.06;7358843;19;20018;-70
2023/09/03 01:42:34;;;;;;;19.90;12.73;;;;;;;19.14;97.19;102192.75;7359704;19;20038;-70
2023/09/03 01:45:02;;;;;;;22.83;13.77;;;;;;;19.15;97.61;102189.06;7359964;19;20877;-71
2023/09/03 01:47:45;;;;;;;21.00;13.05;;;;;;;19.16;97.71;102186.22;7363263;19;20339;-71
2023/09/03 01:50:30;;;;;;;24.25;14.07;;;;;;;19.17;98.01;102187.91;7361862;19;20094;-70
2023/09/03 01:53:04;;;;;;;23.33;14.07;;;;;;;19.17;97.49;102181.72;7364272;19;20014;-70
2023/09/03 01:55:54;;;;;;;22.70;12.88;;;;;;;19.16;97.64;102190.72;7360237;19;20033;-71
2023/09/03 01:58:26;;;;;;;27.70;14.55;;;;;;;19.10;97.36;102194.09;7361142;19;20043;-70
2023/09/03 02:00:55;;;;;;;21.42;14.40;;;;;;;19.05;97.21;102188.44;7356960;19;20045;-72
2023/09/03 02:03:26;;;;;;;20.30;13.55;;;;;;;19.02;97.41;102196.81;7361477;19;20025;-71
2023/09/03 02:05:53;;;;;;;22.25;14.43;;;;;;;19.02;97.54;102202.97;7361679;19;20036;-72
2023/09/03 02:08:20;;;;;;;19.23;14.20;;;;;;;18.98;97.83;102201.69;7361259;19;20019;-70
2023/09/03 02:10:48;;;;;;;22.42;14.98;;;;;;;18.95;97.75;102202.00;7358527;19;20113;-70
2023/09/03 02:13:15;;;;;;;24.08;15.45;;;;;;;18.96;96.74;102198.34;7358456;19;20512;-70
2023/09/03 02:15:42;;;;;;;22.30;14.55;;;;;;;18.94;97.28;102213.72;7361947;19;20152;-71
2023/09/03 02:18:09;;;;;;;23.45;14.95;;;;;;;18.87;97.06;102212.72;7359652;19;20018;-70
2023/09/03 02:20:36;;;;;;;22.15;14.52;;;;;;;18.83;97.51;102213.25;7360496;19;20018;-72
2023/09/03 02:23:03;;;;;;;21.02;14.68;;;;;;;18.81;97.50;102210.75;7363459;19;20341;-71
2023/09/03 02:25:33;;;;;;;25.23;15.38;;;;;;;18.79;98.11;102218.09;7359398;19;20085;-71
2023/09/03 02:28:11;;;;;;;26.23;15.07;;;;;;;18.76;98.49;102221.94;7360994;19;20023;-70
2023/09/03 02:30:38;;;;;;;24.45;16.02;;;;;;;18.74;98.21;102215.91;7359866;19;20082;-72
2023/09/03 02:33:05;;;;;;;22.65;16.40;;;;;;;18.73;98.12;102219.63;7356984;19;20010;-71
2023/09/03 02:35:32;;;;;;;22.92;16.48;;;;;;;18.71;97.97;102220.78;7361719;19;20021;-71
2023/09/03 02:37:59;;;;;;;27.63;17.05;;;;;;;18.68;98.11;102224.63;7362282;19;20053;-70
2023/09/03 02:40:26;;;;;;;24.33;16.15;;;;;;;18.65;98.26;102232.97;7357567;19;20010;-71
2023/09/03 02:42:53;;;;;;;22.40;14.82;;;;;;;18.62;98.50;102237.81;7362307;19;21777;-70
2023/09/03 02:45:20;;;;;;;21.83;15.13;;;;;;;18.61;98.87;102238.81;7346742;19;20011;-70
2023/09/03 02:47:48;;;;;;;22.67;15.63;;;;;;;18.61;99.17;102242.31;7337442;19;20007;-71
2023/09/03 02:50:15;;;;;;;26.30;16.77;;;;;;;18.62;98.89;102241.31;7359973;19;20012;-71
2023/09/03 02:52:42;;;;;;;26.23;16.67;;;;;;;18.60;98.46;102234.47;7363265;19;20106;-70
2023/09/03 02:55:10;;;;;;;26.05;16.95;;;;;;;18.59;98.23;102241.63;7360237;19;20847;-70
2023/09/03 02:57:40;;;;;;;30.08;18.52;;;;;;;18.55;98.12;102237.66;7348250;19;20692;-70
2023/09/03 03:00:14;;;;;;;29.13;18.15;;;;;;;18.51;98.46;102241.63;7348010;19;20026;-71
2023/09/03 03:02:41;;;;;;;27.13;18.23;;;;;;;18.49;98.79;102232.97;7361775;19;20031;-71
2023/09/03 03:05:09;;;;;;;27.60;17.00;;;;;;;18.48;98.97;102227.81;7358398;19;20097;-70
2023/09/03 03:07:38;;;;;;;26.45;16.60;;;;;;;18.47;98.67;102219.00;7360134;19;20058;-71
2023/09/03 03:10:05;;;;;;;25.98;16.52;;;;;;;18.42;98.54;102212.50;7360505;19;20006;-71
2023/09/03 03:12:32;;;;;;;23.67;15.48;;;;;;;18.42;99.15;102217.84;7355733;19;20029;-71
2023/09/03 03:15:00;;;;;;;25.70;17.00;;;;;;;18.42;99.78;102217.84;7344895;19;20018;-71
2023/09/03 03:17:27;;;;;;;31.90;18.67;;;;;;;18.45;100.00;102217.47;7350652;19;20022;-70
2023/09/03 03:19:55;;;;;;;31.67;19.35;;;;;;;18.45;100.00;102220.16;7357825;19;20047;-70
2023/09/03 03:22:22;;;;;;;31.52;18.92;;;;;;;18.45;100.00;102210.31;7355477;19;20029;-71
2023/09/03 03:24:49;;;;;;;32.25;18.45;;;;;;;18.45;100.00;102209.47;7367372;19;21715;-71
2023/09/03 03:27:17;;;;;;;30.35;18.83;;;;;;;18.44;100.00;102208.66;7367050;19;20561;-70
2023/09/03 03:29:44;;;;;;;30.33;17.83;;;;;;;18.43;99.56;102211.50;7366868;19;20022;-70
2023/09/03 03:32:11;;;;;;;29.02;17.50;;;;;;;18.44;99.58;102218.50;7367730;19;20969;-70
2023/09/03 03:34:41;;;;;;;29.88;18.55;;;;;;;18.44;99.43;102218.50;7366425;19;20007;-72
2023/09/03 03:37:09;;;;;;;29.13;18.60;;;;;;;18.39;99.30;102216.31;7367961;19;20520;-71
2023/09/03 03:39:36;;;;;;;29.92;18.63;;;;;;;18.37;99.48;102221.84;7367331;19;20057;-70
2023/09/03 03:42:04;;;;;;;32.17;20.20;;;;;;;18.37;99.19;102226.34;7366469;19;20026;-71
2023/09/03 03:44:31;;;;;;;32.50;20.67;;;;;;;18.36;99.24;102227.34;7366497;19;20026;-71
2023/09/03 03:46:58;;;;;;;32.60;20.65;;;;;;;18.31;99.18;102232.34;7363622;19;20018;-69
2023/09/03 03:49:25;;;;;;;30.65;19.10;;;;;;;18.28;99.65;102228.19;7365418;19;20047;-70
2023/09/03 03:51:52;;;;;;;34.20;18.77;;;;;;;18.27;99.45;102228.34;7366460;19;20014;-71
2023/09/03 03:54:19;;;;;;;34.10;18.45;;;;;;;18.23;99.51;102240.34;7366249;19;20466;-70
2023/09/03 03:56:46;;;;;;;29.98;19.27;;;;;;;18.22;99.55;102244.00;7366111;19;20557;-73
2023/09/03 03:59:13;;;;;;;29.67;18.73;;;;;;;18.19;99.67;102236.34;7364921;19;20018;-71
2023/09/03 04:01:46;;;;;;;33.03;19.17;;;;;;;18.14;99.89;102233.34;7356630;19;20569;-71
2023/09/03 04:04:16;;;;;;;30.65;18.67;;;;;;;18.11;100.00;102225.69;7366396;19;20014;-71
2023/09/03 04:06:43;;;;;;;32.17;18.55;;;;;;;18.12;100.00;102224.69;7363913;19;20426;-70
2023/09/03 04:09:10;;;;;;;28.38;18.63;;;;;;;18.13;100.00;102231.69;7365281;19;20487;-70
2023/09/03 04:11:44;;;;;;;31.92;20.00;;;;;;;18.12;100.00;102238.03;7362242;19;20014;-70
2023/09/03 04:14:11;;;;;;;30.48;18.85;;;;;;;18.13;100.00;102232.53;7366703;19;20089;-71
2023/09/03 04:16:38;;;;;;;32.35;19.70;;;;;;;18.14;100.00;102228.00;7362245;19;20043;-71
2023/09/03 04:19:05;;;;;;;30.67;19.83;;;;;;;18.14;100.00;102222.69;7366404;19;20019;-71
2023/09/03 04:21:37;;;;;;;35.05;19.77;;;;;;;18.15;100.00;102216.38;7365070;19;20018;-71
2023/09/03 04:24:17;;;;;;;28.30;19.02;;;;;;;18.15;100.00;102213.69;7361376;19;21745;-71
2023/09/03 04:26:44;;;;;;;29.13;19.08;;;;;;;18.15;100.00;102219.88;7365069;19;20696;-72
2023/09/03 04:29:11;;;;;;;30.25;19.13;;;;;;;18.15;100.00;102219.88;7362747;19;20022;-71
2023/09/03 04:31:51;;;;;;;29.85;17.77;;;;;;;18.13;100.00;102213.88;7362341;19;20022;-71
2023/09/03 04:34:19;;;;;;;27.13;17.45;;;;;;;18.15;100.00;102206.53;7364295;19;20010;-68
2023/09/03 04:36:46;;;;;;;30.95;19.63;;;;;;;18.15;100.00;102208.38;7361345;19;20085;-68
2023/09/03 04:39:13;;;;;;;33.05;19.45;;;;;;;18.16;100.00;102213.53;7363237;19;20011;-69
2023/09/03 04:41:43;;;;;;;28.10;18.27;;;;;;;18.16;100.00;102218.88;7367156;19;20584;-69
2023/09/03 04:44:12;;;;;;;31.00;18.70;;;;;;;18.13;100.00;102224.53;7364053;19;20021;-69
2023/09/03 04:46:39;;;;;;;25.52;17.13;;;;;;;18.07;100.00;102219.88;7360784;19;20357;-68
2023/09/03 04:49:06;;;;;;;28.48;18.63;;;;;;;18.06;100.00;102222.69;7366024;19;20015;-68
2023/09/03 04:51:47;;;;;;;26.08;17.10;;;;;;;18.05;100.00;102226.34;7365421;19;20089;-69
2023/09/03 04:54:14;;;;;;;24.30;16.00;;;;;;;18.08;100.00;102226.03;7365376;19;20018;-71
2023/09/03 04:56:41;;;;;;;26.20;16.85;;;;;;;18.08;100.00;102237.50;7363784;19;20022;-71
2023/09/03 04:59:10;;;;;;;27.40;18.40;;;;;;;18.10;100.00;102240.84;7365235;19;20025;-71
2023/09/03 05:01:47;;;;;;;30.88;18.00;;;;;;;18.09;100.00;102239.19;7358802;19;20042;-70
2023/09/03 05:04:19;;;;;;;29.50;17.65;;;;;;;18.06;100.00;102247.50;7362407;19;20026;-70
2023/09/03 05:06:47;;;;;;;25.73;17.77;;;;;;;18.03;100.00;102239.84;7363025;19;20031;-71
2023/09/03 05:09:17;;;;;;;27.92;17.58;;;;;;;18.06;100.00;102236.03;7364473;19;21675;-70
2023/09/03 05:11:54;;;;;;;29.17;17.70;;;;;;;18.02;100.00;102224.88;7361686;19;20082;-69
2023/09/03 05:14:24;;;;;;;25.77;16.67;;;;;;;18.02;100.00;102226.72;7363918;19;20037;-69
2023/09/03 05:16:52;;;;;;;27.90;17.23;;;;;;;18.03;100.00;102231.84;7357636;19;20022;-68
2023/09/03 05:19:19;;;;;;;24.23;18.17;;;;;;;18.04;100.00;102236.19;7363431;19;20505;-69
2023/09/03 05:21:49;;;;;;;28.00;16.20;;;;;;;18.05;100.00;102229.84;7361850;19;20014;-68
2023/09/03 05:24:20;;;;;;;29.20;17.52;;;;;;;18.06;100.00;102236.03;7364045;19;20015;-68
2023/09/03 05:26:49;;;;;;;30.52;17.45;;;;;;;18.05;100.00;102242.34;7364729;19;20018;-68
2023/09/03 05:29:17;;;;;;;25.80;17.13;;;;;;;17.99;100.00;102237.69;7363966;19;20063;-69
2023/09/03 05:31:53;;;;;;;34.05;18.60;;;;;;;17.97;100.00;102245.84;7361150;19;20037;-68
2023/09/03 05:34:25;;;;;;;30.98;17.98;;;;;;;17.93;100.00;102253.31;7364241;19;20015;-69
2023/09/03 05:36:53;;;;;;;28.17;17.25;;;;;;;17.93;100.00;102247.16;7362607;19;20052;-69
2023/09/03 05:39:22;;;;;;;30.10;17.35;;;;;;;17.93;100.00;102242.66;7362558;19;20078;-69
2023/09/03 05:41:53;;;;;;;28.33;17.38;;;;;;;17.92;100.00;102250.84;7362589;19;20015;-69
2023/09/03 05:44:26;;;;;;;28.60;17.30;;;;;;;17.91;100.00;102247.34;7365111;19;20018;-69
2023/09/03 05:46:54;;;;;;;25.85;16.02;;;;;;;17.92;100.00;102248.19;7359166;19;20010;-69
2023/09/03 05:49:22;;;;;;;27.80;16.73;;;;;;;17.93;100.00;102247.16;7362144;19;20336;-69
2023/09/03 05:51:51;;;;;;;27.42;16.80;;;;;;;17.96;100.00;102252.19;7361824;19;20038;-68
2023/09/03 05:54:19;;;;;;;31.25;18.13;;;;;;;17.98;100.00;102249.34;7362068;19;21010;-68
2023/09/03 05:56:46;;;;;;;26.77;16.48;;;;;;;17.98;100.00;102255.47;7364710;19;20018;-69
2023/09/03 05:59:14;;;;;;;27.17;16.75;;;;;;;17.97;100.00;102248.53;7364186;19;20018;-68
2023/09/03 06:02:00;;;;;;;26.75;17.05;;;;;;;17.97;100.00;102261.00;7356876;19;20057;-69
2023/09/03 06:04:28;;;;;;;26.90;16.60;;;;;;;17.99;100.00;102269.63;7358466;19;20461;-68
2023/09/03 06:06:55;;;;;;;26.70;17.20;;;;;;;18.02;100.00;102267.50;7360390;19;21787;-70
2023/09/03 06:09:22;;;;;;;29.88;17.13;;;;;;;18.04;100.00;102273.47;7360944;19;20490;-68
2023/09/03 06:11:58;;;;;;;31.58;18.90;;;;;;;18.07;100.00;102259.84;7361392;19;20085;-69
2023/09/03 06:14:25;;;;;;;32.88;17.90;;;;;;;18.10;100.00;102267.50;7362826;19;20041;-69
2023/09/03 06:16:54;;;;;;;28.35;17.50;;;;;;;18.12;100.00;102264.66;7359113;19;20427;-69
2023/09/03 06:19:22;;;;;;;31.15;16.90;;;;;;;18.11;99.85;102269.16;7361516;19;20025;-68
2023/09/03 06:21:56;;;;;;;27.92;17.65;;;;;;;18.11;100.00;102271.81;7360029;19;20545;-69
2023/09/03 06:24:23;;;;;;;25.45;16.45;;;;;;;18.14;100.00;102270.66;7361553;19;20433;-69
2023/09/03 06:26:54;;;;;;;27.38;16.95;;;;;;;18.15;100.00;102274.97;7359760;19;20037;-68
2023/09/03 06:29:22;;;;;;;27.95;15.77;;;;;;;18.17;100.00;102271.16;7360678;19;20474;-68
2023/09/03 06:31:54;;;;;;;26.77;16.55;;;;;;;18.17;100.00;102273.00;7358762;19;20022;-68
2023/09/03 06:34:25;;;;;;;27.63;17.60;;;;;;;18.18;99.01;102286.16;7360798;19;20019;-70
2023/09/03 06:36:52;;;;;;;27.65;15.73;;;;;;;18.19;99.44;102281.63;7359082;19;20021;-68
2023/09/03 06:39:20;;;;;;;29.23;17.42;;;;;;;18.19;98.89;102285.13;7359476;19;21683;-70
2023/09/03 06:41:50;;;;;;;30.20;18.05;;;;;;;18.19;98.84;102284.31;7361063;19;21761;-71
2023/09/03 06:44:21;;;;;;;29.50;17.35;;;;;;;18.17;98.98;102281.00;7362734;19;20041;-71
2023/09/03 06:46:49;;;;;;;28.20;16.92;;;;;;;18.14;99.12;102283.97;7359235;19;20010;-73
2023/09/03 06:49:17;;;;;;;25.90;17.02;;;;;;;18.13;98.59;102279.66;7361013;19;20014;-71
2023/09/03 06:51:51;;;;;;;26.65;16.83;;;;;;;18.12;99.16;102281.50;7360731;19;20042;-72
2023/09/03 06:54:20;;;;;;;28.17;17.63;;;;;;;18.13;99.34;102282.31;7359371;19;21006;-71
2023/09/03 06:56:48;;;;;;;33.03;17.73;;;;;;;18.16;98.94;102285.47;7358515;19;21757;-71
2023/09/03 06:59:15;;;;;;;31.20;17.42;;;;;;;18.12;99.12;102283.31;7369563;19;20018;-72
2023/09/03 07:02:05;;;;;;;28.75;16.92;;;;;;;18.15;99.25;102289.13;7366442;19;20017;-72
2023/09/03 07:04:32;;;;;;;25.55;16.70;;;;;;;18.15;99.42;102291.81;7362746;19;20011;-69
2023/09/03 07:07:00;;;;;;;27.77;16.10;;;;;;;18.17;99.87;102287.16;7368518;19;20023;-69
2023/09/03 07:09:32;;;;;;;28.30;16.02;;;;;;;18.28;100.00;102286.00;7366061;19;20033;-70
2023/09/03 07:12:03;;;;;;;25.25;16.00;;;;;;;18.33;100.00;102289.81;7368406;19;20023;-70
2023/09/03 07:14:36;;;;;;;25.50;16.38;;;;;;;18.40;100.00;102284.63;7365771;19;20584;-69
2023/09/03 07:17:03;;;;;;;27.55;15.73;;;;;;;18.46;100.00;102277.78;7361687;19;20066;-69
2023/09/03 07:19:30;;;;;;;26.83;16.25;;;;;;;18.50;98.85;102287.94;7365233;19;20016;-70
2023/09/03 07:21:58;;;;;;;27.60;15.60;;;;;;;18.52;98.38;102287.78;7369938;19;20675;-70
2023/09/03 07:24:25;;;;;;;25.15;15.32;;;;;;;18.53;99.05;102294.78;7362732;19;20023;-70
2023/09/03 07:26:53;;;;;;;26.15;15.70;;;;;;;18.58;99.01;102303.16;7363281;19;20029;-71
2023/09/03 07:29:20;;;;;;;23.33;14.98;;;;;;;18.63;99.96;102296.31;7364597;19;21926;-69
2023/09/03 07:31:53;;;;;;;23.60;14.20;;;;;;;18.65;99.81;102299.63;7364193;19;20061;-69
2023/09/03 07:34:22;;;;;;;18.63;12.02;;;;;;;18.73;99.21;102301.47;7367115;19;20019;-69
2023/09/03 07:36:50;;;;;;;21.52;12.50;;;;;;;18.79;98.60;102303.47;7366553;19;20022;-69
2023/09/03 07:39:17;;;;;;;27.38;14.23;;;;;;;18.80;98.46;102297.09;7366191;19;20044;-70
2023/09/03 07:41:59;;;;;;;22.20;13.40;;;;;;;18.78;98.70;102302.63;7365857;19;20489;-70
2023/09/03 07:44:27;;;;;;;25.63;14.27;;;;;;;18.83;98.90;102296.78;7365388;19;20090;-71
2023/09/03 07:46:54;;;;;;;21.25;13.57;;;;;;;18.87;98.84;102299.91;7363639;19;20026;-70
2023/09/03 07:49:23;;;;;;;20.92;13.23;;;;;;;18.95;98.62;102302.56;7363084;19;20482;-69
2023/09/03 07:51:53;;;;;;;18.33;12.13;;;;;;;18.94;98.61;102304.41;7365531;19;20042;-70
2023/09/03 07:54:25;;;;;;;22.90;13.55;;;;;;;18.97;99.18;102301.41;7365074;19;20088;-71
2023/09/03 07:56:56;;;;;;;22.38;12.90;;;;;;;19.03;98.98;102311.38;7366370;19;21248;-70
2023/09/03 07:59:26;;;;;;;18.08;11.25;;;;;;;19.08;98.95;102314.38;7365965;19;20376;-70
2023/09/03 08:01:58;;;;;;;18.63;11.82;;;;;;;19.15;99.26;102314.50;7358556;19;20926;-69
2023/09/03 08:04:31;;;;;;;20.67;11.13;;;;;;;19.21;99.00;102309.31;7364919;19;20041;-69
2023/09/03 08:07:00;;;;;;;18.60;11.00;;;;;;;19.25;98.43;102306.31;7361938;19;20014;-69
2023/09/03 08:09:28;;;;;;;17.90;11.00;;;;;;;19.30;97.66;102311.97;7362689;19;20014;-71
2023/09/03 08:12:01;;;;;;;15.93;10.25;;;;;;;19.39;97.28;102310.91;7366863;19;20416;-69
2023/09/03 08:14:32;;;;;;;15.27;9.75;;;;;;;19.48;96.25;102304.56;7365308;19;20026;-70
2023/09/03 08:16:59;;;;;;;14.65;9.88;;;;;;;19.53;95.71;102311.03;7362229;19;20595;-71
2023/09/03 08:19:27;;;;;;;17.88;10.63;;;;;;;19.57;96.61;102304.34;7364236;19;20025;-70
2023/09/03 08:21:56;;;;;;;16.15;9.25;;;;;;;19.62;94.47;102309.97;7363914;19;20014;-70
2023/09/03 08:24:26;;;;;;;16.75;9.18;;;;;;;19.65;95.00;102314.16;7365466;19;21685;-70
2023/09/03 08:26:55;;;;;;;14.88;8.68;;;;;;;19.67;94.94;102320.13;7366010;19;20019;-71
2023/09/03 08:29:23;;;;;;;15.40;7.82;;;;;;;19.71;95.09;102320.63;7364472;19;20015;-71
2023/09/03 08:31:51;;;;;;;14.90;7.75;;;;;;;19.73;95.13;102319.44;7361636;19;20020;-70
2023/09/03 08:34:19;;;;;;;16.73;9.05;;;;;;;19.78;95.08;102316.25;7364108;19;20107;-71
2023/09/03 08:36:48;;;;;;;13.00;8.00;;;;;;;19.81;94.64;102316.72;7362349;19;20014;-70
2023/09/03 08:39:22;;;;;;;16.07;9.07;;;;;;;19.87;93.54;102320.50;7362777;19;20014;-71
2023/09/03 08:42:02;;;;;;;13.27;7.93;;;;;;;19.93;93.05;102330.50;7361452;19;20661;-69
2023/09/03 08:44:55;;;;;;;12.70;8.15;;;;;;;20.04;90.92;102330.94;7365263;19;20021;-70
2023/09/03 08:47:24;;;;;;;11.45;7.40;;;;;;;20.07;90.60;102335.06;7362046;19;20490;-71
2023/09/03 08:49:53;;;;;;;14.98;7.68;;;;;;;20.08;90.93;102329.56;7360176;19;20025;-70
2023/09/03 08:52:23;;;;;;;12.45;6.93;;;;;;;20.11;91.20;102338.25;7364442;19;20093;-72
2023/09/03 08:54:54;;;;;;;13.95;7.50;;;;;;;20.13;91.39;102331.69;7361014;19;20388;-72
2023/09/03 08:57:28;;;;;;;13.85;7.90;;;;;;;20.17;90.82;102342.84;7363202;19;20035;-71
2023/09/03 09:00:14;;;;;;;10.85;6.65;;;;;;;20.16;89.16;102344.72;7360461;19;20022;-72
2023/09/03 09:02:48;;;;;;;11.10;7.35;;;;;;;20.21;88.92;102346.88;7363914;19;20047;-71
2023/09/03 09:05:18;;;;;;;11.90;7.05;;;;;;;20.28;88.23;102343.28;7363315;19;20034;-71
2023/09/03 09:07:48;;;;;;;11.57;6.63;;;;;;;20.29;86.51;102347.63;7360104;19;20014;-70
2023/09/03 09:10:24;;;;;;;10.43;7.13;;;;;;;20.28;87.82;102345.94;7362415;19;20010;-71
2023/09/03 09:13:04;;;;;;;11.05;6.38;;;;;;;20.29;89.56;102341.44;7363922;19;20020;-70
2023/09/03 09:15:36;;;;;;;14.52;6.82;;;;;;;20.29;88.91;102344.13;7362205;19;20014;-70
2023/09/03 09:18:10;;;;;;;13.48;7.20;;;;;;;20.34;88.70;102334.56;7357187;19;20010;-71
2023/09/03 09:20:50;;;;;;;11.27;6.60;;;;;;;20.40;88.81;102346.41;7355140;19;20017;-71
2023/09/03 09:23:34;;;;;;;9.27;6.47;;;;;;;20.51;86.08;102345.16;7360024;19;20033;-71
2023/09/03 09:36:56;;;;;;;11.80;6.18;;;;;;;20.66;87.34;102343.34;7353633;19;21334;-72
2023/09/03 09:40:00;;;;;;;14.23;6.07;;;;;;;20.75;86.14;102344.91;7356698;19;20116;-70
2023/09/03 09:43:10;;;;;;;8.95;4.68;;;;;;;20.86;84.44;102350.66;7352991;19;20047;-70
2023/09/03 09:45:54;;;;;;;9.80;4.53;;;;;;;20.91;84.96;102350.09;7357911;19;20029;-70
2023/09/03 09:48:56;;;;;;;10.57;5.05;;;;;;;20.99;83.38;102350.00;7357492;19;20021;-70
2023/09/03 09:51:30;;;;;;;9.35;4.38;;;;;;;21.03;84.04;102342.47;7360734;19;20030;-70
2023/09/03 09:54:08;;;;;;;10.15;5.57;;;;;;;21.09;83.39;102341.69;7359276;19;20020;-70
2023/09/03 09:57:21;;;;;;;9.95;5.40;;;;;;;21.11;83.41;102347.72;7358768;19;20028;-70
2023/09/03 10:00:06;;;;;;;15.05;6.43;;;;;;;21.16;83.39;102345.34;7356958;19;20026;-71
2023/09/03 10:05:58;;;;;;;9.65;4.70;;;;;;;21.23;84.49;102347.09;7357018;19;20627;-70
2023/09/03 10:08:53;;;;;;;6.97;4.95;;;;;;;21.29;83.98;102353.56;7354344;19;21095;-72
2023/09/03 10:11:44;;;;;;;7.35;5.05;;;;;;;21.35;83.16;102355.50;7360781;19;20603;-71
2023/09/03 10:15:00;;;;;;;6.75;4.38;;;;;;;21.41;83.16;102356.59;7350532;19;20022;-70
2023/09/03 10:21:15;;;;;;;6.85;3.88;;;;;;;21.58;82.37;102339.31;7352539;19;20026;-70
2023/09/03 10:24:19;;;;;;;8.75;4.63;;;;;;;21.68;81.49;102350.56;7361563;19;20016;-71
2023/09/03 10:27:19;;;;;;;;;;;;;;;;;;;;;
2023/09/03 10:30:38;;;;;;;;;;;;;;;21.74;80.95;102355.97;7356233;19;20029;-70
2023/09/03 10:33:40;;;;;;;6.78;4.43;;;;;;;21.77;80.33;102349.44;7350642;19;19922;-71
2023/09/03 10:36:23;;;;;;;7.97;5.40;;;;;;;21.81;79.01;102348.03;7358909;19;20030;-71
2023/09/03 10:38:58;;;;;;;11.38;5.18;;;;;;;21.83;79.43;102340.63;7361774;19;20015;-71
2023/09/03 10:41:25;;;;;;;7.25;4.43;;;;;;;21.89;80.53;102352.44;7359512;19;20948;-71
2023/09/03 10:43:55;;;;;;;8.73;3.80;;;;;;;21.95;81.29;102346.34;7358736;19;21693;-71
2023/09/03 10:46:22;;;;;;;10.93;4.40;;;;;;;22.01;80.94;102348.25;7357377;19;20829;-70
2023/09/03 10:48:59;;;;;;;11.15;5.20;;;;;;;22.07;79.76;102348.34;7359301;19;20010;-72
2023/09/03 10:51:35;;;;;;;9.80;4.90;;;;;;;22.16;79.34;102347.19;7360061;19;20015;-71
2023/09/03 10:54:15;;;;;;;9.68;5.53;;;;;;;22.24;77.10;102348.09;7361313;19;20022;-71
2023/09/03 10:57:04;;;;;;;7.75;4.45;;;;;;;22.26;77.07;102349.53;7360384;19;20533;-70
2023/09/03 11:00:18;;;;;;;;;;;;;;;;;;;;;
2023/09/03 11:02:48;;;;;;;8.13;4.72;;;;;;;22.24;77.13;102348.09;7359609;19;20375;-71
2023/09/03 11:05:29;;;;;;;8.70;4.93;;;;;;;22.27;77.18;102351.22;7351566;19;20006;-71
2023/09/03 11:08:31;;;;;;;8.25;4.38;;;;;;;22.33;76.38;102353.13;7358659;19;20010;-71
2023/09/03 11:10:59;;;;;;;7.90;4.80;;;;;;;22.36;77.45;102360.78;7354054;19;20013;-71
2023/09/03 11:13:28;;;;;;;10.70;4.70;;;;;;;22.40;77.15;102354.00;7361323;19;20018;-70
2023/09/03 11:16:06;;;;;;;8.05;4.35;;;;;;;22.45;75.94;102353.44;7357687;19;20074;-70
2023/09/03 11:18:38;;;;;;;;;;;;;;;22.49;73.89;102354.72;7357472;19;20023;-71
2023/09/03 11:21:06;;;;;;;8.48;3.50;;;;;;;22.50;74.07;102353.69;7357588;19;19922;-71
2023/09/03 11:23:34;;;;;;;4.72;2.90;;;;;;;22.50;73.47;102356.38;7359062;19;20485;-71
2023/09/03 11:26:03;;;;;;;6.50;3.55;;;;;;;22.56;76.59;102344.84;7356960;19;20041;-71
2023/09/03 11:28:38;;;;;;;7.22;3.92;;;;;;;22.59;74.53;102358.72;7359079;19;20330;-74
2023/09/03 11:31:05;;;;;;;8.30;3.60;;;;;;;22.63;73.80;102359.16;7354099;19;20028;-72
2023/09/03 11:33:32;;;;;;;6.00;3.70;;;;;;;22.68;72.95;102355.88;7358854;19;20090;-72
2023/09/03 11:36:00;;;;;;;7.28;4.05;;;;;;;22.69;73.47;102354.88;7355032;19;20010;-71
2023/09/03 11:38:29;;;;;;;6.97;3.97;;;;;;;22.71;74.12;102353.66;7360245;19;20019;-71
2023/09/03 11:40:58;;;;;;;10.77;4.53;;;;;;;22.70;73.81;102352.00;7356597;19;20085;-71
2023/09/03 11:43:29;;;;;;;8.40;4.90;;;;;;;22.73;72.60;102358.84;7358832;19;20019;-70
2023/09/03 11:45:57;;;;;;;7.60;4.88;;;;;;;22.75;73.30;102348.75;7355524;19;20048;-71
2023/09/03 11:48:30;;;;;;;8.02;4.93;;;;;;;22.81;72.70;102347.94;7360674;19;20481;-72
2023/09/03 11:50:58;;;;;;;;;;;;;;;22.81;72.69;102353.31;7362118;19;20022;-72
2023/09/03 11:53:38;;;;;;;4.97;3.58;;;;;;;22.79;73.97;102347.34;7366662;19;20014;-71
2023/09/03 11:56:06;;;;;;;4.60;3.40;;;;;;;22.82;74.57;102349.63;7365487;19;20774;-73